KSRQ/SRQ METAR and TAF weather

Enter ICAO airport designator
Station Type Date Time Source
KSRQ METAR 2019/06/18 11:53 UTC NOAA

KSRQ 181153Z 14004KT 10SM FEW029 SCT037 SCT050 25/24 A3002 RMK AO2 SLP163 60045 70045 T02500239 10250 20239 53010


Station Type Date Time Source
KSRQ Decoded METAR 2019/06/18 11:53 UTC NOAA

SARASOTA/BRADENTON INTERNATIONAL ., FL, United States (KSRQ) 27-24N 082-33W 18M
Jun 18, 2019 - 07:53 AM EDT / 2019.06.18 1153 UTC
Wind: from the SE (140 degrees) at 5 MPH (4 KT):0
Visibility: 10 mile(s):0
Sky conditions: partly cloudy
Temperature: 77.0 F (25.0 C)
Dew Point: 75.0 F (23.9 C)
Relative Humidity: 93%
Pressure (altimeter): 30.02 in. Hg (1016 hPa)
Pressure tendency: 0.03 inches (1.0 hPa) higher than three hours ago
ob: KSRQ 181153Z 14004KT 10SM FEW029 SCT037 SCT050 25/24 A3002 RMK AO2 SLP163 60045 70045 T02500239 10250 20239 53010
cycle: 12

Station Type Date Time Source
KSRQ TAF 2019/06/18 12:36 UTC NOAA

TAF KSRQ 181133Z 1812/1912 16006KT P6SM VCTS SCT015CB BKN090
FM181500 22010KT P6SM VCTS SCT020CB BKN130
FM181800 23009KT P6SM SCT025 BKN080
FM190000 25009KT P6SM FEW025 SCT080
FM190900 22005KT P6SM SCT030 BKN080

Example: see airport list